sensor_id;sensor_type;location;lat;lon;timestamp;pressure;altitude;pressure_sealevel;temperature;humidity
36378;BME280;22402;42.746;23.606;2023-03-22T00:01:09;93110.47;;;9.17;100.00
36378;BME280;22402;42.746;23.606;2023-03-22T00:03:34;93103.63;;;9.16;100.00
36378;BME280;22402;42.746;23.606;2023-03-22T00:05:59;93103.50;;;9.17;100.00
36378;BME280;22402;42.746;23.606;2023-03-22T00:08:25;93098.00;;;9.20;100.00
36378;BME280;22402;42.746;23.606;2023-03-22T00:10:50;93107.44;;;9.21;100.00
36378;BME280;22402;42.746;23.606;2023-03-22T00:13:15;93101.94;;;9.24;100.00
36378;BME280;22402;42.746;23.606;2023-03-22T00:15:41;93098.41;;;9.25;100.00
36378;BME280;22402;42.746;23.606;2023-03-22T00:18:06;93105.91;;;9.28;100.00
36378;BME280;22402;42.746;23.606;2023-03-22T00:20:32;93103.31;;;9.28;100.00
36378;BME280;22402;42.746;23.606;2023-03-22T00:22:57;93103.00;;;9.31;100.00
36378;BME280;22402;42.746;23.606;2023-03-22T00:25:22;93103.00;;;9.31;100.00
36378;BME280;22402;42.746;23.606;2023-03-22T00:27:47;93096.84;;;9.32;100.00
36378;BME280;22402;42.746;23.606;2023-03-22T00:30:13;93094.22;;;9.32;100.00
36378;BME280;22402;42.746;23.606;2023-03-22T00:32:39;93095.88;;;9.33;100.00
36378;BME280;22402;42.746;23.606;2023-03-22T00:35:04;93094.22;;;9.32;100.00
36378;BME280;22402;42.746;23.606;2023-03-22T00:37:29;93093.25;;;9.33;100.00
36378;BME280;22402;42.746;23.606;2023-03-22T00:39:55;93089.84;;;9.33;100.00
36378;BME280;22402;42.746;23.606;2023-03-22T00:42:20;93082.03;;;9.33;100.00
36378;BME280;22402;42.746;23.606;2023-03-22T00:44:45;93080.25;;;9.33;100.00
36378;BME280;22402;42.746;23.606;2023-03-22T00:47:11;93077.81;;;9.32;100.00
36378;BME280;22402;42.746;23.606;2023-03-22T00:49:36;93078.63;;;9.32;100.00
36378;BME280;22402;42.746;23.606;2023-03-22T00:52:01;93073.44;;;9.32;100.00
36378;BME280;22402;42.746;23.606;2023-03-22T00:54:26;93068.22;;;9.32;100.00
36378;BME280;22402;42.746;23.606;2023-03-22T00:56:51;93065.63;;;9.32;100.00
36378;BME280;22402;42.746;23.606;2023-03-22T00:59:16;93065.63;;;9.32;100.00
36378;BME280;22402;42.746;23.606;2023-03-22T01:01:42;93073.44;;;9.32;100.00
36378;BME280;22402;42.746;23.606;2023-03-22T01:04:07;93068.22;;;9.32;100.00
36378;BME280;22402;42.746;23.606;2023-03-22T01:06:32;93069.19;;;9.31;100.00
36378;BME280;22402;42.746;23.606;2023-03-22T01:08:58;93056.19;;;9.31;100.00
36378;BME280;22402;42.746;23.606;2023-03-22T01:11:23;93054.53;;;9.30;100.00
36378;BME280;22402;42.746;23.606;2023-03-22T01:13:49;93058.91;;;9.30;100.00
36378;BME280;22402;42.746;23.606;2023-03-22T01:16:15;93072.09;;;9.28;100.00
36378;BME280;22402;42.746;23.606;2023-03-22T01:18:41;93059.09;;;9.28;100.00
36378;BME280;22402;42.746;23.606;2023-03-22T01:21:06;93058.41;;;9.26;100.00
36378;BME280;22402;42.746;23.606;2023-03-22T01:23:31;93053.19;;;9.26;100.00
36378;BME280;22402;42.746;23.606;2023-03-22T01:25:56;93058.41;;;9.26;100.00
36378;BME280;22402;42.746;23.606;2023-03-22T01:28:22;93055.41;;;9.21;100.00
36378;BME280;22402;42.746;23.606;2023-03-22T01:30:47;93055.94;;;9.25;100.00
36378;BME280;22402;42.746;23.606;2023-03-22T01:33:12;93053.50;;;9.23;100.00
36378;BME280;22402;42.746;23.606;2023-03-22T01:35:37;93045.00;;;9.21;100.00
36378;BME280;22402;42.746;23.606;2023-03-22T01:38:03;93054.47;;;9.22;100.00
36378;BME280;22402;42.746;23.606;2023-03-22T01:40:28;93052.81;;;9.21;100.00
36378;BME280;22402;42.746;23.606;2023-03-22T01:42:53;93058.16;;;9.20;100.00
36378;BME280;22402;42.746;23.606;2023-03-22T01:47:47;93060.91;;;9.18;100.00
36378;BME280;22402;42.746;23.606;2023-03-22T01:50:14;93059.28;;;9.17;100.00
36378;BME280;22402;42.746;23.606;2023-03-22T01:52:40;93057.47;;;9.18;100.00
36378;BME280;22402;42.746;23.606;2023-03-22T01:55:06;93052.28;;;9.18;100.00
36378;BME280;22402;42.746;23.606;2023-03-22T01:57:31;93050.50;;;9.18;100.00
36378;BME280;22402;42.746;23.606;2023-03-22T01:59:58;93054.75;;;9.19;100.00
36378;BME280;22402;42.746;23.606;2023-03-22T02:02:23;93062.56;;;9.19;100.00
36378;BME280;22402;42.746;23.606;2023-03-22T02:04:48;93058.97;;;9.20;100.00
36378;BME280;22402;42.746;23.606;2023-03-22T02:07:13;93057.34;;;9.19;100.00
36378;BME280;22402;42.746;23.606;2023-03-22T02:09:40;93061.59;;;9.20;100.00
36378;BME280;22402;42.746;23.606;2023-03-22T02:14:42;93069.38;;;9.20;100.00
36378;BME280;22402;42.746;23.606;2023-03-22T02:17:22;93069.38;;;9.20;100.00
36378;BME280;22402;42.746;23.606;2023-03-22T02:22:38;93071.00;;;9.21;100.00
36378;BME280;22402;42.746;23.606;2023-03-22T02:33:05;93069.38;;;9.20;100.00
36378;BME280;22402;42.746;23.606;2023-03-22T02:35:40;93067.59;;;9.21;100.00
36378;BME280;22402;42.746;23.606;2023-03-22T02:38:13;93067.75;;;9.19;100.00
36378;BME280;22402;42.746;23.606;2023-03-22T02:43:55;93078.16;;;9.19;100.00
36378;BME280;22402;42.746;23.606;2023-03-22T02:46:29;93075.56;;;9.19;100.00
36378;BME280;22402;42.746;23.606;2023-03-22T02:49:17;93075.34;;;9.03;100.00
36378;BME280;22402;42.746;23.606;2023-03-22T02:51:47;93080.75;;;9.19;100.00
36378;BME280;22402;42.746;23.606;2023-03-22T02:56:48;93086.91;;;9.18;100.00
36378;BME280;22402;42.746;23.606;2023-03-22T02:59:14;93088.69;;;9.18;100.00
36378;BME280;22402;42.746;23.606;2023-03-22T03:01:43;93084.47;;;9.17;100.00
36378;BME280;22402;42.746;23.606;2023-03-22T03:04:21;93092.09;;;9.18;100.00
36378;BME280;22402;42.746;23.606;2023-03-22T03:06:48;93086.91;;;9.18;100.00
36378;BME280;22402;42.746;23.606;2023-03-22T03:09:15;93081.72;;;9.18;100.00
36378;BME280;22402;42.746;23.606;2023-03-22T03:11:41;93089.50;;;9.18;100.00
36378;BME280;22402;42.746;23.606;2023-03-22T03:14:17;93095.41;;;9.20;100.00
36378;BME280;22402;42.746;23.606;2023-03-22T03:16:43;93093.78;;;9.19;100.00
36378;BME280;22402;42.746;23.606;2023-03-22T03:19:19;93088.56;;;9.19;100.00
36378;BME280;22402;42.746;23.606;2023-03-22T03:21:53;93088.56;;;9.19;100.00
36378;BME280;22402;42.746;23.606;2023-03-22T03:24:20;93088.56;;;9.19;100.00
36378;BME280;22402;42.746;23.606;2023-03-22T03:26:57;93093.91;;;9.18;100.00
36378;BME280;22402;42.746;23.606;2023-03-22T03:29:37;93090.47;;;9.17;100.00
36378;BME280;22402;42.746;23.606;2023-03-22T03:34:38;93094.19;;;9.15;100.00
36378;BME280;22402;42.746;23.606;2023-03-22T03:37:06;93096.91;;;9.13;100.00
36378;BME280;22402;42.746;23.606;2023-03-22T03:39:34;93097.75;;;9.13;100.00
36378;BME280;22402;42.746;23.606;2023-03-22T03:42:01;93092.69;;;9.12;100.00
36378;BME280;22402;42.746;23.606;2023-03-22T03:44:29;93090.09;;;9.12;100.00
36378;BME280;22402;42.746;23.606;2023-03-22T03:46:55;93093.66;;;9.11;100.00
36378;BME280;22402;42.746;23.606;2023-03-22T03:49:21;93100.66;;;9.10;100.00
36378;BME280;22402;42.746;23.606;2023-03-22T03:51:51;93094.78;;;9.08;100.00
36378;BME280;22402;42.746;23.606;2023-03-22T03:54:17;93089.69;;;9.07;100.00
36378;BME280;22402;42.746;23.606;2023-03-22T03:56:42;93092.28;;;9.07;100.00
36378;BME280;22402;42.746;23.606;2023-03-22T03:59:07;93089.97;;;9.04;100.00
36378;BME280;22402;42.746;23.606;2023-03-22T04:01:33;93094.25;;;9.05;100.00
36378;BME280;22402;42.746;23.606;2023-03-22T04:03:58;93096.16;;;9.03;100.00
36378;BME280;22402;42.746;23.606;2023-03-22T04:06:23;93099.72;;;9.02;100.00
36378;BME280;22402;42.746;23.606;2023-03-22T04:08:48;93104.94;;;9.02;100.00
36378;BME280;22402;42.746;23.606;2023-03-22T04:11:13;93103.28;;;9.01;100.00
36378;BME280;22402;42.746;23.606;2023-03-22T04:13:39;93105.06;;;9.00;100.00
36378;BME280;22402;42.746;23.606;2023-03-22T04:16:05;93108.75;;;8.98;100.00
36378;BME280;22402;42.746;23.606;2023-03-22T04:18:30;93108.09;;;8.96;100.00
36378;BME280;22402;42.746;23.606;2023-03-22T04:20:55;93108.09;;;8.96;100.00
36378;BME280;22402;42.746;23.606;2023-03-22T04:23:20;93113.31;;;8.96;100.00
36378;BME280;22402;42.746;23.606;2023-03-22T04:25:46;93108.22;;;8.94;100.00
36378;BME280;22402;42.746;23.606;2023-03-22T04:28:11;93116.84;;;8.95;100.00
36378;BME280;22402;42.746;23.606;2023-03-22T04:30:36;93117.81;;;8.94;100.00
36378;BME280;22402;42.746;23.606;2023-03-22T04:33:02;93118.78;;;8.93;100.00
36378;BME280;22402;42.746;23.606;2023-03-22T04:35:27;93121.50;;;8.91;100.00
36378;BME280;22402;42.746;23.606;2023-03-22T04:37:53;93118.09;;;8.90;100.00
36378;BME280;22402;42.746;23.606;2023-03-22T04:40:18;93123.31;;;8.90;100.00
36378;BME280;22402;42.746;23.606;2023-03-22T04:42:43;93129.47;;;8.89;100.00
36378;BME280;22402;42.746;23.606;2023-03-22T04:45:09;93123.44;;;8.89;100.00
36378;BME280;22402;42.746;23.606;2023-03-22T04:47:34;93127.81;;;8.88;100.00
36378;BME280;22402;42.746;23.606;2023-03-22T04:49:59;93130.41;;;8.88;100.00
36378;BME280;22402;42.746;23.606;2023-03-22T04:52:25;93129.47;;;8.89;100.00
36378;BME280;22402;42.746;23.606;2023-03-22T04:54:50;93127.00;;;8.88;100.00
36378;BME280;22402;42.746;23.606;2023-03-22T04:57:15;93128.78;;;8.87;100.00
36378;BME280;22402;42.746;23.606;2023-03-22T04:59:40;93134.09;;;8.86;100.00
36378;BME280;22402;42.746;23.606;2023-03-22T05:02:05;93129.75;;;8.86;100.00
36378;BME280;22402;42.746;23.606;2023-03-22T05:04:31;93136.06;;;8.84;100.00
36378;BME280;22402;42.746;23.606;2023-03-22T05:06:56;93137.97;;;8.82;100.00
36378;BME280;22402;42.746;23.606;2023-03-22T05:09:21;93144.94;;;8.81;100.00
36378;BME280;22402;42.746;23.606;2023-03-22T05:11:46;93141.66;;;8.79;100.00
36378;BME280;22402;42.746;23.606;2023-03-22T05:14:11;93147.84;;;8.78;100.00
36378;BME280;22402;42.746;23.606;2023-03-22T05:16:37;93151.38;;;8.77;100.00
36378;BME280;22402;42.746;23.606;2023-03-22T05:19:02;93151.53;;;8.76;100.00
36378;BME280;22402;42.746;23.606;2023-03-22T05:21:28;93149.06;;;8.74;100.00
36378;BME280;22402;42.746;23.606;2023-03-22T05:23:54;93156.03;;;8.74;100.00
36378;BME280;22402;42.746;23.606;2023-03-22T05:26:20;93163.19;;;8.72;100.00
36378;BME280;22402;42.746;23.606;2023-03-22T05:28:45;93157.28;;;8.70;100.00
36378;BME280;22402;42.746;23.606;2023-03-22T05:31:10;93161.78;;;8.67;100.00
36378;BME280;22402;42.746;23.606;2023-03-22T05:33:36;93168.09;;;8.65;100.00
36378;BME280;22402;42.746;23.606;2023-03-22T05:36:01;93158.78;;;8.62;100.00
36378;BME280;22402;42.746;23.606;2023-03-22T05:38:27;93167.28;;;8.64;100.00
36378;BME280;22402;42.746;23.606;2023-03-22T05:40:52;93171.66;;;8.64;100.00
36378;BME280;22402;42.746;23.606;2023-03-22T05:43:17;93175.22;;;8.63;100.00
36378;BME280;22402;42.746;23.606;2023-03-22T05:45:42;93170.16;;;8.61;100.00
36378;BME280;22402;42.746;23.606;2023-03-22T05:48:08;93159.78;;;8.52;100.00
36378;BME280;22402;42.746;23.606;2023-03-22T05:50:33;93178.91;;;8.60;100.00
36378;BME280;22402;42.746;23.606;2023-03-22T05:52:58;93181.50;;;8.60;100.00
36378;BME280;22402;42.746;23.606;2023-03-22T05:55:24;93180.69;;;8.60;100.00
36378;BME280;22402;42.746;23.606;2023-03-22T05:57:49;93185.91;;;8.60;100.00
36378;BME280;22402;42.746;23.606;2023-03-22T06:00:14;93193.00;;;8.58;100.00
36378;BME280;22402;42.746;23.606;2023-03-22T06:02:40;93189.72;;;8.56;100.00
36378;BME280;22402;42.746;23.606;2023-03-22T06:05:06;93188.91;;;8.55;100.00
36378;BME280;22402;42.746;23.606;2023-03-22T06:07:32;93193.28;;;8.55;100.00
36378;BME280;22402;42.746;23.606;2023-03-22T06:09:57;93194.91;;;8.56;100.00
36378;BME280;22402;42.746;23.606;2023-03-22T06:12:22;93203.69;;;8.55;100.00
36378;BME280;22402;42.746;23.606;2023-03-22T06:14:48;93196.00;;;8.53;100.00
36378;BME280;22402;42.746;23.606;2023-03-22T06:17:13;93196.00;;;8.53;100.00
36378;BME280;22402;42.746;23.606;2023-03-22T06:19:38;93204.63;;;8.54;100.00
36378;BME280;22402;42.746;23.606;2023-03-22T06:22:03;93199.44;;;8.54;100.00
36378;BME280;22402;42.746;23.606;2023-03-22T06:24:29;93202.03;;;8.54;100.00
36378;BME280;22402;42.746;23.606;2023-03-22T06:26:54;93210.78;;;8.53;100.00
36378;BME280;22402;42.746;23.606;2023-03-22T06:29:19;93198.47;;;8.55;100.00
36378;BME280;22402;42.746;23.606;2023-03-22T06:31:44;93201.75;;;8.57;100.00
36378;BME280;22402;42.746;23.606;2023-03-22T06:34:09;93203.25;;;8.59;100.00
36378;BME280;22402;42.746;23.606;2023-03-22T06:36:35;93200.38;;;8.62;100.00
36378;BME280;22402;42.746;23.606;2023-03-22T06:39:00;93209.53;;;8.66;100.00
36378;BME280;22402;42.746;23.606;2023-03-22T06:41:25;93206.66;;;8.70;100.00
36378;BME280;22402;42.746;23.606;2023-03-22T06:43:51;93210.63;;;8.74;100.00
36378;BME280;22402;42.746;23.606;2023-03-22T06:46:16;93208.56;;;8.77;100.00
36378;BME280;22402;42.746;23.606;2023-03-22T06:48:41;93216.91;;;8.71;100.00
36378;BME280;22402;42.746;23.606;2023-03-22T06:51:06;93215.81;;;8.83;100.00
36378;BME280;22402;42.746;23.606;2023-03-22T06:53:31;93215.66;;;8.85;100.00
36378;BME280;22402;42.746;23.606;2023-03-22T06:55:56;93211.28;;;8.85;100.00
36378;BME280;22402;42.746;23.606;2023-03-22T06:58:22;93215.53;;;8.86;100.00
36378;BME280;22402;42.746;23.606;2023-03-22T07:00:47;93218.00;;;8.88;100.00
36378;BME280;22402;42.746;23.606;2023-03-22T07:03:12;93223.06;;;8.89;100.00
36378;BME280;22402;42.746;23.606;2023-03-22T07:05:37;93231.81;;;8.88;100.00
36378;BME280;22402;42.746;23.606;2023-03-22T07:08:02;93229.09;;;8.90;100.00
36378;BME280;22402;42.746;23.606;2023-03-22T07:10:28;93228.28;;;8.89;100.00
36378;BME280;22402;42.746;23.606;2023-03-22T07:12:53;93224.69;;;8.90;100.00
36378;BME280;22402;42.746;23.606;2023-03-22T07:15:19;93231.53;;;8.92;100.00
36378;BME280;22402;42.746;23.606;2023-03-22T07:17:44;93234.13;;;8.92;100.00
36378;BME280;22402;42.746;23.606;2023-03-22T07:20:09;93235.91;;;8.91;100.00
36378;BME280;22402;42.746;23.606;2023-03-22T07:22:34;93234.13;;;8.92;100.00
36378;BME280;22402;42.746;23.606;2023-03-22T07:24:59;93247.13;;;8.92;100.00
36378;BME280;22402;42.746;23.606;2023-03-22T07:27:25;93247.13;;;8.92;100.00
36378;BME280;22402;42.746;23.606;2023-03-22T07:29:50;93235.13;;;8.81;100.00
36378;BME280;22402;42.746;23.606;2023-03-22T07:32:15;93257.28;;;8.85;100.00
36378;BME280;22402;42.746;23.606;2023-03-22T07:34:40;93257.41;;;8.83;100.00
36378;BME280;22402;42.746;23.606;2023-03-22T07:37:06;93258.22;;;8.84;100.00
36378;BME280;22402;42.746;23.606;2023-03-22T07:39:31;93258.22;;;8.84;100.00
36378;BME280;22402;42.746;23.606;2023-03-22T07:41:56;93263.28;;;8.85;100.00
36378;BME280;22402;42.746;23.606;2023-03-22T07:44:22;93262.47;;;8.85;100.00
36378;BME280;22402;42.746;23.606;2023-03-22T07:46:47;93266.03;;;8.84;100.00
36378;BME280;22402;42.746;23.606;2023-03-22T07:49:12;93271.34;;;8.82;100.00
36378;BME280;22402;42.746;23.606;2023-03-22T07:51:38;93267.13;;;8.81;100.00
36378;BME280;22402;42.746;23.606;2023-03-22T07:54:03;93273.97;;;8.82;100.00
36378;BME280;22402;42.746;23.606;2023-03-22T07:56:29;93271.34;;;8.82;100.00
36378;BME280;22402;42.746;23.606;2023-03-22T07:58:54;93274.78;;;8.83;100.00
36378;BME280;22402;42.746;23.606;2023-03-22T08:01:19;93276.44;;;8.84;100.00
36378;BME280;22402;42.746;23.606;2023-03-22T08:03:44;93264.09;;;8.86;100.00
36378;BME280;22402;42.746;23.606;2023-03-22T08:06:09;93269.28;;;8.86;100.00
36378;BME280;22402;42.746;23.606;2023-03-22T08:08:35;93267.66;;;8.85;100.00
36378;BME280;22402;42.746;23.606;2023-03-22T08:11:01;93272.06;;;8.84;100.00
36378;BME280;22402;42.746;23.606;2023-03-22T08:13:26;93278.88;;;8.85;100.00
36378;BME280;22402;42.746;23.606;2023-03-22T08:15:51;93276.28;;;8.85;100.00
36378;BME280;22402;42.746;23.606;2023-03-22T08:18:16;93271.91;;;8.86;100.00
36378;BME280;22402;42.746;23.606;2023-03-22T08:20:41;93270.25;;;8.85;100.00
36378;BME280;22402;42.746;23.606;2023-03-22T08:23:07;93270.13;;;8.86;100.00
36378;BME280;22402;42.746;23.606;2023-03-22T08:25:32;93277.94;;;8.86;100.00
36378;BME280;22402;42.746;23.606;2023-03-22T08:27:57;93278.06;;;8.85;100.00
36378;BME280;22402;42.746;23.606;2023-03-22T08:30:23;93274.66;;;8.84;100.00
36378;BME280;22402;42.746;23.606;2023-03-22T08:32:48;93282.44;;;8.84;100.00
36378;BME280;22402;42.746;23.606;2023-03-22T08:35:13;93278.88;;;8.85;100.00
36378;BME280;22402;42.746;23.606;2023-03-22T08:37:38;93283.13;;;8.86;100.00
36378;BME280;22402;42.746;23.606;2023-03-22T08:40:04;93280.53;;;8.86;100.00
36378;BME280;22402;42.746;23.606;2023-03-22T08:42:29;93279.69;;;8.86;100.00
36378;BME280;22402;42.746;23.606;2023-03-22T08:44:54;93290.94;;;8.86;100.00
36378;BME280;22402;42.746;23.606;2023-03-22T08:47:20;93286.69;;;8.85;100.00
36378;BME280;22402;42.746;23.606;2023-03-22T08:49:45;93288.34;;;8.86;100.00
36378;BME280;22402;42.746;23.606;2023-03-22T08:52:10;93287.50;;;8.86;100.00
36378;BME280;22402;42.746;23.606;2023-03-22T08:54:35;93306.53;;;8.86;100.00
36378;BME280;22402;42.746;23.606;2023-03-22T08:57:01;93299.41;;;8.88;100.00
36378;BME280;22402;42.746;23.606;2023-03-22T08:59:26;93294.19;;;8.88;100.00
36378;BME280;22402;42.746;23.606;2023-03-22T09:01:51;93300.22;;;8.89;100.00
36378;BME280;22402;42.746;23.606;2023-03-22T09:04:16;93299.53;;;8.77;100.00
36378;BME280;22402;42.746;23.606;2023-03-22T09:06:41;93289.00;;;8.88;100.00
36378;BME280;22402;42.746;23.606;2023-03-22T09:09:06;93301.06;;;8.89;100.00
36378;BME280;22402;42.746;23.606;2023-03-22T09:11:32;93300.38;;;8.87;100.00
36378;BME280;22402;42.746;23.606;2023-03-22T09:13:57;93307.34;;;8.87;100.00
36378;BME280;22402;42.746;23.606;2023-03-22T09:16:22;93302.72;;;8.81;100.00
36378;BME280;22402;42.746;23.606;2023-03-22T09:18:47;93310.63;;;8.79;100.00
36378;BME280;22402;42.746;23.606;2023-03-22T09:21:12;93303.63;;;8.80;100.00
36378;BME280;22402;42.746;23.606;2023-03-22T09:23:37;93305.16;;;8.82;100.00
36378;BME280;22402;42.746;23.606;2023-03-22T09:26:03;93305.69;;;8.86;100.00
36378;BME280;22402;42.746;23.606;2023-03-22T09:28:29;93306.25;;;8.89;100.00
36378;BME280;22402;42.746;23.606;2023-03-22T09:30:58;93300.78;;;8.93;100.00
36378;BME280;22402;42.746;23.606;2023-03-22T09:33:24;93307.34;;;8.97;100.00
36378;BME280;22402;42.746;23.606;2023-03-22T09:35:49;93304.47;;;9.00;100.00
36378;BME280;22402;42.746;23.606;2023-03-22T09:38:14;93306.50;;;9.06;100.00
36378;BME280;22402;42.746;23.606;2023-03-22T09:40:42;93312.25;;;9.09;100.00
36378;BME280;22402;42.746;23.606;2023-03-22T09:43:10;93305.13;;;9.11;100.00
36378;BME280;22402;42.746;23.606;2023-03-22T09:45:38;93310.88;;;9.15;100.00
36378;BME280;22402;42.746;23.606;2023-03-22T09:48:12;93312.25;;;9.19;100.00
36378;BME280;22402;42.746;23.606;2023-03-22T09:50:42;93307.72;;;9.21;100.00
36378;BME280;22402;42.746;23.606;2023-03-22T09:53:08;93313.47;;;9.25;100.00
36378;BME280;22402;42.746;23.606;2023-03-22T09:55:36;93306.22;;;9.28;100.00
36378;BME280;22402;42.746;23.606;2023-03-22T10:01:11;93316.06;;;9.34;100.00
36378;BME280;22402;42.746;23.606;2023-03-22T10:10:57;93330.56;;;9.47;100.00
36378;BME280;22402;42.746;23.606;2023-03-22T10:13:31;93321.09;;;9.46;100.00
36378;BME280;22402;42.746;23.606;2023-03-22T10:16:01;93325.34;;;9.47;100.00
36378;BME280;22402;42.746;23.606;2023-03-22T10:21:02;93329.47;;;9.49;100.00
36378;BME280;22402;42.746;23.606;2023-03-22T10:23:33;93330.28;;;9.50;100.00
36378;BME280;22402;42.746;23.606;2023-03-22T10:25:59;93326.97;;;9.48;100.00
36378;BME280;22402;42.746;23.606;2023-03-22T10:28:27;93330.56;;;9.47;100.00
36378;BME280;22402;42.746;23.606;2023-03-22T10:30:55;93323.84;;;9.44;100.00
36378;BME280;22402;42.746;23.606;2023-03-22T10:33:32;93327.25;;;9.45;100.00
36378;BME280;22402;42.746;23.606;2023-03-22T10:35:59;93319.44;;;9.45;100.00
36378;BME280;22402;42.746;23.606;2023-03-22T10:38:25;93321.25;;;9.44;100.00
36378;BME280;22402;42.746;23.606;2023-03-22T10:40:52;93316.84;;;9.45;100.00
36378;BME280;22402;42.746;23.606;2023-03-22T10:43:26;93319.44;;;9.45;100.00
36378;BME280;22402;42.746;23.606;2023-03-22T10:45:53;93318.63;;;9.44;100.00
36378;BME280;22402;42.746;23.606;2023-03-22T10:50:45;93318.47;;;9.46;100.00
36378;BME280;22402;42.746;23.606;2023-03-22T10:55:42;93321.66;;;9.49;100.00
36378;BME280;22402;42.746;23.606;2023-03-22T11:00:49;93312.75;;;9.52;100.00
36378;BME280;22402;42.746;23.606;2023-03-22T11:06:05;93312.88;;;9.50;100.00
36378;BME280;22402;42.746;23.606;2023-03-22T11:08:36;93323.44;;;9.49;100.00
36378;BME280;22402;42.746;23.606;2023-03-22T11:11:05;93315.06;;;9.45;100.00
36378;BME280;22402;42.746;23.606;2023-03-22T11:13:38;93315.22;;;9.44;100.00
36378;BME280;22402;42.746;23.606;2023-03-22T11:16:04;93318.09;;;9.41;100.00
36378;BME280;22402;42.746;23.606;2023-03-22T11:18:31;93309.59;;;9.39;100.00
36378;BME280;22402;42.746;23.606;2023-03-22T11:20:58;93312.66;;;9.34;100.00
36378;BME280;22402;42.746;23.606;2023-03-22T11:23:23;93305.38;;;9.28;100.00
36378;BME280;22402;42.746;23.606;2023-03-22T11:25:49;93301.56;;;9.22;100.00
36378;BME280;22402;42.746;23.606;2023-03-22T11:28:20;93312.91;;;9.21;100.00
36378;BME280;22402;42.746;23.606;2023-03-22T11:33:29;93309.25;;;9.14;100.00
36378;BME280;22402;42.746;23.606;2023-03-22T11:35:55;93304.31;;;9.11;100.00
36378;BME280;22402;42.746;23.606;2023-03-22T11:38:23;93313.34;;;9.07;100.00
36378;BME280;22402;42.746;23.606;2023-03-22T11:40:51;93314.59;;;9.03;100.00
36378;BME280;22402;42.746;23.606;2023-03-22T11:43:30;93315.16;;;8.97;100.00
36378;BME280;22402;42.746;23.606;2023-03-22T11:45:56;93304.06;;;8.95;100.00
36378;BME280;22402;42.746;23.606;2023-03-22T11:48:31;93300.78;;;8.93;100.00
36378;BME280;22402;42.746;23.606;2023-03-22T11:51:02;93297.63;;;8.89;100.00
36378;BME280;22402;42.746;23.606;2023-03-22T11:53:27;93306.66;;;8.85;100.00
36378;BME280;22402;42.746;23.606;2023-03-22T11:55:56;93305.44;;;8.79;100.00
36378;BME280;22402;42.746;23.606;2023-03-22T11:58:26;93300.78;;;8.73;100.00
36378;BME280;22402;42.746;23.606;2023-03-22T12:00:52;93314.03;;;8.70;100.00
36378;BME280;22402;42.746;23.606;2023-03-22T12:03:19;93308.03;;;8.70;100.00
36378;BME280;22402;42.746;23.606;2023-03-22T12:05:46;93310.63;;;8.70;100.00
36378;BME280;22402;42.746;23.606;2023-03-22T12:10:41;93304.75;;;8.67;100.00
36378;BME280;22402;42.746;23.606;2023-03-22T12:13:18;93309.00;;;8.69;100.00
36378;BME280;22402;42.746;23.606;2023-03-22T12:15:47;93309.00;;;8.69;100.00
36378;BME280;22402;42.746;23.606;2023-03-22T12:18:25;93308.31;;;8.66;100.00
36378;BME280;22402;42.746;23.606;2023-03-22T12:20:54;93313.91;;;8.62;100.00
36378;BME280;22402;42.746;23.606;2023-03-22T12:23:21;93307.34;;;8.58;100.00
36378;BME280;22402;42.746;23.606;2023-03-22T12:28:32;93305.72;;;8.57;100.00
36378;BME280;22402;42.746;23.606;2023-03-22T12:30:59;93294.34;;;8.58;100.00
36378;BME280;22402;42.746;23.606;2023-03-22T12:33:29;93293.53;;;8.57;100.00
36378;BME280;22402;42.746;23.606;2023-03-22T12:35:57;93301.31;;;8.57;100.00
36378;BME280;22402;42.746;23.606;2023-03-22T12:38:40;93304.75;;;8.58;100.00
36378;BME280;22402;42.746;23.606;2023-03-22T12:41:09;93311.56;;;8.59;100.00
36378;BME280;22402;42.746;23.606;2023-03-22T12:46:03;93299.28;;;8.61;100.00
36378;BME280;22402;42.746;23.606;2023-03-22T12:50:57;93302.56;;;8.63;100.00
36378;BME280;22402;42.746;23.606;2023-03-22T12:53:25;93303.22;;;8.65;100.00
36378;BME280;22402;42.746;23.606;2023-03-22T12:55:52;93300.50;;;8.66;100.00
36378;BME280;22402;42.746;23.606;2023-03-22T12:58:19;93296.94;;;8.67;100.00
36378;BME280;22402;42.746;23.606;2023-03-22T13:00:50;93301.06;;;8.70;100.00
36378;BME280;22402;42.746;23.606;2023-03-22T13:03:19;93299.16;;;8.72;100.00
36378;BME280;22402;42.746;23.606;2023-03-22T13:05:48;93295.56;;;8.73;100.00
36378;BME280;22402;42.746;23.606;2023-03-22T13:08:20;93302.41;;;8.74;100.00
36378;BME280;22402;42.746;23.606;2023-03-22T13:26:19;93274.78;;;8.73;100.00
36378;BME280;22402;42.746;23.606;2023-03-22T13:28:56;93289.44;;;8.84;100.00
36378;BME280;22402;42.746;23.606;2023-03-22T13:31:56;93282.56;;;8.83;100.00
36378;BME280;22402;42.746;23.606;2023-03-22T13:34:15;93286.69;;;8.85;100.00
36378;BME280;22402;42.746;23.606;2023-03-22T13:36:47;93276.97;;;8.87;100.00
36378;BME280;22402;42.746;23.606;2023-03-22T13:39:13;93286.13;;;8.92;100.00
36378;BME280;22402;42.746;23.606;2023-03-22T13:41:38;93276.13;;;8.97;100.00
36378;BME280;22402;42.746;23.606;2023-03-22T13:44:38;93280.78;;;9.03;100.00
36378;BME280;22402;42.746;23.606;2023-03-22T13:46:56;93284.47;;;9.10;100.00
36378;BME280;22402;42.746;23.606;2023-03-22T13:49:41;93281.56;;;9.13;100.00
36378;BME280;22402;42.746;23.606;2023-03-22T13:52:07;93282.16;;;9.17;100.00
36378;BME280;22402;42.746;23.606;2023-03-22T13:54:36;93281.72;;;9.21;100.00
36378;BME280;22402;42.746;23.606;2023-03-22T13:57:04;93294.72;;;9.21;100.00
36378;BME280;22402;42.746;23.606;2023-03-22T13:59:59;93292.81;;;9.23;100.00
36378;BME280;22402;42.746;23.606;2023-03-22T14:02:28;93294.72;;;9.21;100.00
36378;BME280;22402;42.746;23.606;2023-03-22T14:05:14;93287.88;;;9.20;100.00